sensor_id;sensor_type;location;lat;lon;timestamp;temperature;humidity
66184;DHT22;52989;48.796;9.806;2023-02-24T00:00:42;8.10;99.90
66184;DHT22;52989;48.796;9.806;2023-02-24T00:03:15;8.10;99.90
66184;DHT22;52989;48.796;9.806;2023-02-24T00:05:41;8.00;99.90
66184;DHT22;52989;48.796;9.806;2023-02-24T00:08:14;8.00;99.90
66184;DHT22;52989;48.796;9.806;2023-02-24T00:10:40;8.10;99.90
66184;DHT22;52989;48.796;9.806;2023-02-24T00:13:05;8.30;99.90
66184;DHT22;52989;48.796;9.806;2023-02-24T00:15:31;8.40;99.90
66184;DHT22;52989;48.796;9.806;2023-02-24T00:17:57;8.40;99.90
66184;DHT22;52989;48.796;9.806;2023-02-24T00:20:24;8.40;99.90
66184;DHT22;52989;48.796;9.806;2023-02-24T00:22:49;8.70;99.90
66184;DHT22;52989;48.796;9.806;2023-02-24T00:25:15;8.60;99.90
66184;DHT22;52989;48.796;9.806;2023-02-24T00:27:40;8.30;99.90
66184;DHT22;52989;48.796;9.806;2023-02-24T00:30:08;8.30;99.90
66184;DHT22;52989;48.796;9.806;2023-02-24T00:32:35;8.40;99.90
66184;DHT22;52989;48.796;9.806;2023-02-24T00:35:01;8.30;99.90
66184;DHT22;52989;48.796;9.806;2023-02-24T00:37:26;8.10;99.90
66184;DHT22;52989;48.796;9.806;2023-02-24T00:39:53;8.20;99.90
66184;DHT22;52989;48.796;9.806;2023-02-24T00:42:22;8.20;99.90
66184;DHT22;52989;48.796;9.806;2023-02-24T00:44:48;8.30;99.90
66184;DHT22;52989;48.796;9.806;2023-02-24T00:47:14;8.40;99.90
66184;DHT22;52989;48.796;9.806;2023-02-24T00:49:43;8.30;99.90
66184;DHT22;52989;48.796;9.806;2023-02-24T00:52:12;8.50;99.90
66184;DHT22;52989;48.796;9.806;2023-02-24T00:54:39;8.70;99.90
66184;DHT22;52989;48.796;9.806;2023-02-24T00:57:04;8.80;99.90
66184;DHT22;52989;48.796;9.806;2023-02-24T00:59:32;8.80;99.90
66184;DHT22;52989;48.796;9.806;2023-02-24T01:01:58;8.60;99.90
66184;DHT22;52989;48.796;9.806;2023-02-24T01:04:23;8.30;99.90
66184;DHT22;52989;48.796;9.806;2023-02-24T01:06:51;8.10;99.90
66184;DHT22;52989;48.796;9.806;2023-02-24T01:09:25;8.30;99.90
66184;DHT22;52989;48.796;9.806;2023-02-24T01:11:52;8.60;99.90
66184;DHT22;52989;48.796;9.806;2023-02-24T01:14:36;8.30;99.90
66184;DHT22;52989;48.796;9.806;2023-02-24T01:17:07;8.20;99.90
66184;DHT22;52989;48.796;9.806;2023-02-24T01:19:33;8.10;99.90
66184;DHT22;52989;48.796;9.806;2023-02-24T01:22:00;8.30;99.90
66184;DHT22;52989;48.796;9.806;2023-02-24T01:24:27;8.70;99.90
66184;DHT22;52989;48.796;9.806;2023-02-24T01:26:53;8.40;99.90
66184;DHT22;52989;48.796;9.806;2023-02-24T01:29:19;8.10;99.90
66184;DHT22;52989;48.796;9.806;2023-02-24T01:31:46;8.00;99.90
66184;DHT22;52989;48.796;9.806;2023-02-24T01:34:14;7.90;99.90
66184;DHT22;52989;48.796;9.806;2023-02-24T01:36:40;7.90;99.90
66184;DHT22;52989;48.796;9.806;2023-02-24T01:39:10;8.00;99.90
66184;DHT22;52989;48.796;9.806;2023-02-24T01:41:38;8.40;99.90
66184;DHT22;52989;48.796;9.806;2023-02-24T01:44:05;8.50;99.90
66184;DHT22;52989;48.796;9.806;2023-02-24T01:46:35;8.60;99.90
66184;DHT22;52989;48.796;9.806;2023-02-24T01:49:06;8.70;99.90
66184;DHT22;52989;48.796;9.806;2023-02-24T01:51:37;8.90;99.90
66184;DHT22;52989;48.796;9.806;2023-02-24T01:54:04;8.80;99.90
66184;DHT22;52989;48.796;9.806;2023-02-24T01:56:30;9.00;99.90
66184;DHT22;52989;48.796;9.806;2023-02-24T01:58:56;8.60;99.90
66184;DHT22;52989;48.796;9.806;2023-02-24T02:01:23;8.30;99.90
66184;DHT22;52989;48.796;9.806;2023-02-24T02:03:49;8.20;99.90
66184;DHT22;52989;48.796;9.806;2023-02-24T02:06:16;8.00;99.90
66184;DHT22;52989;48.796;9.806;2023-02-24T02:08:42;8.10;99.90
66184;DHT22;52989;48.796;9.806;2023-02-24T02:11:09;8.10;99.90
66184;DHT22;52989;48.796;9.806;2023-02-24T02:13:36;8.30;99.90
66184;DHT22;52989;48.796;9.806;2023-02-24T02:21:45;8.90;99.90
66184;DHT22;52989;48.796;9.806;2023-02-24T02:31:56;8.90;99.90
66184;DHT22;52989;48.796;9.806;2023-02-24T02:37:11;8.30;99.90
66184;DHT22;52989;48.796;9.806;2023-02-24T02:39:46;8.30;99.90
66184;DHT22;52989;48.796;9.806;2023-02-24T02:47:34;9.00;99.90
66184;DHT22;52989;48.796;9.806;2023-02-24T02:55:23;9.10;99.90
66184;DHT22;52989;48.796;9.806;2023-02-24T02:57:51;8.90;99.90
66184;DHT22;52989;48.796;9.806;2023-02-24T03:00:18;8.70;99.90
66184;DHT22;52989;48.796;9.806;2023-02-24T03:02:50;8.40;99.90
66184;DHT22;52989;48.796;9.806;2023-02-24T03:05:17;8.50;99.90
66184;DHT22;52989;48.796;9.806;2023-02-24T03:07:48;8.60;99.90
66184;DHT22;52989;48.796;9.806;2023-02-24T03:10:19;8.70;99.90
66184;DHT22;52989;48.796;9.806;2023-02-24T03:12:49;8.70;99.90
66184;DHT22;52989;48.796;9.806;2023-02-24T03:15:16;8.50;99.90
66184;DHT22;52989;48.796;9.806;2023-02-24T03:17:42;8.30;99.90
66184;DHT22;52989;48.796;9.806;2023-02-24T03:20:17;8.30;99.90
66184;DHT22;52989;48.796;9.806;2023-02-24T03:25:24;8.30;99.90
66184;DHT22;52989;48.796;9.806;2023-02-24T03:27:54;8.30;99.90
66184;DHT22;52989;48.796;9.806;2023-02-24T03:30:31;8.20;99.90
66184;DHT22;52989;48.796;9.806;2023-02-24T03:33:01;8.20;99.90
66184;DHT22;52989;48.796;9.806;2023-02-24T03:35:30;8.20;99.90
66184;DHT22;52989;48.796;9.806;2023-02-24T03:37:58;8.30;99.90
66184;DHT22;52989;48.796;9.806;2023-02-24T03:40:24;8.40;99.90
66184;DHT22;52989;48.796;9.806;2023-02-24T03:42:59;8.70;99.90
66184;DHT22;52989;48.796;9.806;2023-02-24T03:45:36;8.90;99.90
66184;DHT22;52989;48.796;9.806;2023-02-24T03:48:05;8.60;99.90
66184;DHT22;52989;48.796;9.806;2023-02-24T03:50:32;8.50;99.90
66184;DHT22;52989;48.796;9.806;2023-02-24T04:00:57;9.00;99.90
66184;DHT22;52989;48.796;9.806;2023-02-24T04:03:32;9.10;99.90
66184;DHT22;52989;48.796;9.806;2023-02-24T04:06:07;9.10;99.90
66184;DHT22;52989;48.796;9.806;2023-02-24T04:08:44;9.00;99.90
66184;DHT22;52989;48.796;9.806;2023-02-24T04:17:09;8.50;99.90
66184;DHT22;52989;48.796;9.806;2023-02-24T04:19:38;8.30;99.90
66184;DHT22;52989;48.796;9.806;2023-02-24T04:22:05;8.50;99.90
66184;DHT22;52989;48.796;9.806;2023-02-24T04:24:34;8.40;99.90
66184;DHT22;52989;48.796;9.806;2023-02-24T04:27:02;8.50;99.90
66184;DHT22;52989;48.796;9.806;2023-02-24T04:29:29;8.80;99.90
66184;DHT22;52989;48.796;9.806;2023-02-24T04:32:09;8.70;99.90
66184;DHT22;52989;48.796;9.806;2023-02-24T04:34:35;8.50;99.90
66184;DHT22;52989;48.796;9.806;2023-02-24T04:37:01;8.70;99.90
66184;DHT22;52989;48.796;9.806;2023-02-24T04:39:27;8.50;99.90
66184;DHT22;52989;48.796;9.806;2023-02-24T04:41:53;8.70;99.90
66184;DHT22;52989;48.796;9.806;2023-02-24T04:44:19;8.90;99.90
66184;DHT22;52989;48.796;9.806;2023-02-24T04:46:46;9.00;99.90
66184;DHT22;52989;48.796;9.806;2023-02-24T04:49:11;9.00;99.90
66184;DHT22;52989;48.796;9.806;2023-02-24T04:51:38;9.10;99.90
66184;DHT22;52989;48.796;9.806;2023-02-24T04:54:07;8.90;99.90
66184;DHT22;52989;48.796;9.806;2023-02-24T04:56:34;8.50;99.90
66184;DHT22;52989;48.796;9.806;2023-02-24T04:59:00;8.60;99.90
66184;DHT22;52989;48.796;9.806;2023-02-24T05:01:26;8.50;99.90
66184;DHT22;52989;48.796;9.806;2023-02-24T05:03:53;8.50;99.90
66184;DHT22;52989;48.796;9.806;2023-02-24T05:06:19;8.50;99.90
66184;DHT22;52989;48.796;9.806;2023-02-24T05:08:44;8.60;99.90
66184;DHT22;52989;48.796;9.806;2023-02-24T05:11:13;8.50;99.90
66184;DHT22;52989;48.796;9.806;2023-02-24T05:13:42;8.30;99.90
66184;DHT22;52989;48.796;9.806;2023-02-24T05:16:11;8.40;99.90
66184;DHT22;52989;48.796;9.806;2023-02-24T05:18:38;8.30;99.90
66184;DHT22;52989;48.796;9.806;2023-02-24T05:21:05;8.20;99.90
66184;DHT22;52989;48.796;9.806;2023-02-24T05:23:49;8.50;99.90
66184;DHT22;52989;48.796;9.806;2023-02-24T05:26:17;8.70;99.90
66184;DHT22;52989;48.796;9.806;2023-02-24T05:28:43;8.50;99.90
66184;DHT22;52989;48.796;9.806;2023-02-24T05:31:15;8.70;99.90
66184;DHT22;52989;48.796;9.806;2023-02-24T05:33:42;8.50;99.90
66184;DHT22;52989;48.796;9.806;2023-02-24T05:36:09;8.50;99.90
66184;DHT22;52989;48.796;9.806;2023-02-24T05:38:36;8.50;99.90
66184;DHT22;52989;48.796;9.806;2023-02-24T05:41:03;8.40;99.90
66184;DHT22;52989;48.796;9.806;2023-02-24T05:43:29;8.60;99.90
66184;DHT22;52989;48.796;9.806;2023-02-24T05:45:59;8.30;99.90
66184;DHT22;52989;48.796;9.806;2023-02-24T05:48:25;8.30;99.90
66184;DHT22;52989;48.796;9.806;2023-02-24T05:50:52;8.50;99.90
66184;DHT22;52989;48.796;9.806;2023-02-24T05:53:19;8.50;99.90
66184;DHT22;52989;48.796;9.806;2023-02-24T05:55:45;8.30;99.90
66184;DHT22;52989;48.796;9.806;2023-02-24T05:58:10;8.40;99.90
66184;DHT22;52989;48.796;9.806;2023-02-24T06:00:36;8.20;99.90
66184;DHT22;52989;48.796;9.806;2023-02-24T06:03:04;8.10;99.90
66184;DHT22;52989;48.796;9.806;2023-02-24T06:05:59;8.50;99.90
66184;DHT22;52989;48.796;9.806;2023-02-24T06:08:33;8.50;99.90
66184;DHT22;52989;48.796;9.806;2023-02-24T06:11:07;8.20;99.90
66184;DHT22;52989;48.796;9.806;2023-02-24T06:13:33;8.10;99.90
66184;DHT22;52989;48.796;9.806;2023-02-24T06:15:58;8.40;99.90
66184;DHT22;52989;48.796;9.806;2023-02-24T06:18:24;8.40;99.90
66184;DHT22;52989;48.796;9.806;2023-02-24T06:20:50;8.30;99.90
66184;DHT22;52989;48.796;9.806;2023-02-24T06:23:15;8.20;99.90
66184;DHT22;52989;48.796;9.806;2023-02-24T06:25:42;8.30;99.90
66184;DHT22;52989;48.796;9.806;2023-02-24T06:28:07;8.20;99.90
66184;DHT22;52989;48.796;9.806;2023-02-24T06:30:34;8.40;99.90
66184;DHT22;52989;48.796;9.806;2023-02-24T06:32:59;8.40;99.90
66184;DHT22;52989;48.796;9.806;2023-02-24T06:35:25;8.60;99.90
66184;DHT22;52989;48.796;9.806;2023-02-24T06:37:51;8.30;99.90
66184;DHT22;52989;48.796;9.806;2023-02-24T06:40:20;8.30;99.90
66184;DHT22;52989;48.796;9.806;2023-02-24T06:42:46;8.20;99.90
66184;DHT22;52989;48.796;9.806;2023-02-24T06:45:12;8.60;99.90
66184;DHT22;52989;48.796;9.806;2023-02-24T06:47:38;8.80;99.90
66184;DHT22;52989;48.796;9.806;2023-02-24T06:50:03;8.80;99.90
66184;DHT22;52989;48.796;9.806;2023-02-24T06:52:32;8.80;99.90
66184;DHT22;52989;48.796;9.806;2023-02-24T06:54:58;8.60;99.90
66184;DHT22;52989;48.796;9.806;2023-02-24T06:57:23;8.50;99.90
66184;DHT22;52989;48.796;9.806;2023-02-24T06:59:49;8.30;99.90
66184;DHT22;52989;48.796;9.806;2023-02-24T07:02:15;8.20;99.90
66184;DHT22;52989;48.796;9.806;2023-02-24T07:04:41;8.10;99.90
66184;DHT22;52989;48.796;9.806;2023-02-24T07:07:10;8.50;99.90
66184;DHT22;52989;48.796;9.806;2023-02-24T07:09:38;8.50;99.90
66184;DHT22;52989;48.796;9.806;2023-02-24T07:12:06;8.60;99.90
66184;DHT22;52989;48.796;9.806;2023-02-24T07:14:32;8.80;99.90
66184;DHT22;52989;48.796;9.806;2023-02-24T07:16:58;8.80;99.90
66184;DHT22;52989;48.796;9.806;2023-02-24T07:19:27;9.00;99.90
66184;DHT22;52989;48.796;9.806;2023-02-24T07:21:57;8.90;99.90
66184;DHT22;52989;48.796;9.806;2023-02-24T07:24:27;8.50;99.90
66184;DHT22;52989;48.796;9.806;2023-02-24T07:27:07;8.50;99.90
66184;DHT22;52989;48.796;9.806;2023-02-24T07:29:35;8.90;99.90
66184;DHT22;52989;48.796;9.806;2023-02-24T07:32:02;8.80;99.90
66184;DHT22;52989;48.796;9.806;2023-02-24T07:34:29;9.00;99.90
66184;DHT22;52989;48.796;9.806;2023-02-24T07:36:55;9.00;99.90
66184;DHT22;52989;48.796;9.806;2023-02-24T07:39:21;8.60;99.90
66184;DHT22;52989;48.796;9.806;2023-02-24T07:41:48;8.60;99.90
66184;DHT22;52989;48.796;9.806;2023-02-24T07:44:15;8.50;99.90
66184;DHT22;52989;48.796;9.806;2023-02-24T07:46:41;8.40;99.90
66184;DHT22;52989;48.796;9.806;2023-02-24T07:49:09;8.60;99.90
66184;DHT22;52989;48.796;9.806;2023-02-24T07:51:37;8.50;99.90
66184;DHT22;52989;48.796;9.806;2023-02-24T07:54:02;8.50;99.90
66184;DHT22;52989;48.796;9.806;2023-02-24T07:56:29;8.60;99.90
66184;DHT22;52989;48.796;9.806;2023-02-24T08:01:24;9.10;99.90
66184;DHT22;52989;48.796;9.806;2023-02-24T08:03:56;8.70;99.90
66184;DHT22;52989;48.796;9.806;2023-02-24T08:06:22;8.80;99.90
66184;DHT22;52989;48.796;9.806;2023-02-24T08:08:54;8.70;99.90
66184;DHT22;52989;48.796;9.806;2023-02-24T08:11:23;8.50;99.90
66184;DHT22;52989;48.796;9.806;2023-02-24T08:13:49;8.50;99.90
66184;DHT22;52989;48.796;9.806;2023-02-24T08:16:15;8.70;99.90
66184;DHT22;52989;48.796;9.806;2023-02-24T08:18:40;9.00;99.90
66184;DHT22;52989;48.796;9.806;2023-02-24T08:21:14;9.00;99.90
66184;DHT22;52989;48.796;9.806;2023-02-24T08:23:39;9.30;99.90
66184;DHT22;52989;48.796;9.806;2023-02-24T08:26:09;9.20;99.90
66184;DHT22;52989;48.796;9.806;2023-02-24T08:28:38;9.20;99.90
66184;DHT22;52989;48.796;9.806;2023-02-24T08:31:03;9.30;99.90
66184;DHT22;52989;48.796;9.806;2023-02-24T08:33:29;8.90;99.90
66184;DHT22;52989;48.796;9.806;2023-02-24T08:35:54;8.50;99.90
66184;DHT22;52989;48.796;9.806;2023-02-24T08:38:26;8.30;99.90
66184;DHT22;52989;48.796;9.806;2023-02-24T08:41:13;8.30;99.90
66184;DHT22;52989;48.796;9.806;2023-02-24T08:43:41;8.90;99.90
66184;DHT22;52989;48.796;9.806;2023-02-24T08:48:50;9.10;99.90
66184;DHT22;52989;48.796;9.806;2023-02-24T08:51:20;9.00;99.90
66184;DHT22;52989;48.796;9.806;2023-02-24T08:53:50;8.90;99.90
66184;DHT22;52989;48.796;9.806;2023-02-24T08:56:18;9.10;99.90
66184;DHT22;52989;48.796;9.806;2023-02-24T08:58:48;8.90;99.90
66184;DHT22;52989;48.796;9.806;2023-02-24T09:01:21;8.80;99.90
66184;DHT22;52989;48.796;9.806;2023-02-24T09:03:50;8.70;99.90
66184;DHT22;52989;48.796;9.806;2023-02-24T09:06:18;8.90;99.90
66184;DHT22;52989;48.796;9.806;2023-02-24T09:08:50;8.70;99.90
66184;DHT22;52989;48.796;9.806;2023-02-24T09:11:36;9.00;99.90
66184;DHT22;52989;48.796;9.806;2023-02-24T09:14:01;8.70;99.90
66184;DHT22;52989;48.796;9.806;2023-02-24T09:16:29;8.50;99.90
66184;DHT22;52989;48.796;9.806;2023-02-24T09:18:54;8.50;99.90
66184;DHT22;52989;48.796;9.806;2023-02-24T09:21:38;8.50;99.90
66184;DHT22;52989;48.796;9.806;2023-02-24T09:24:13;9.00;99.90
66184;DHT22;52989;48.796;9.806;2023-02-24T09:26:39;9.20;99.90
66184;DHT22;52989;48.796;9.806;2023-02-24T09:29:11;8.90;99.90
66184;DHT22;52989;48.796;9.806;2023-02-24T09:31:55;8.90;99.90
66184;DHT22;52989;48.796;9.806;2023-02-24T09:34:38;8.80;99.90
66184;DHT22;52989;48.796;9.806;2023-02-24T09:37:08;8.50;99.90
66184;DHT22;52989;48.796;9.806;2023-02-24T09:39:52;8.30;99.90
66184;DHT22;52989;48.796;9.806;2023-02-24T09:42:24;8.30;99.90
66184;DHT22;52989;48.796;9.806;2023-02-24T09:44:54;8.90;99.90
66184;DHT22;52989;48.796;9.806;2023-02-24T09:47:35;8.80;99.90
66184;DHT22;52989;48.796;9.806;2023-02-24T09:52:51;8.60;99.90
66184;DHT22;52989;48.796;9.806;2023-02-24T09:55:26;8.70;99.90
66184;DHT22;52989;48.796;9.806;2023-02-24T10:00:47;8.90;99.90
66184;DHT22;52989;48.796;9.806;2023-02-24T10:03:28;9.00;99.90
66184;DHT22;52989;48.796;9.806;2023-02-24T10:06:13;8.80;99.90
66184;DHT22;52989;48.796;9.806;2023-02-24T10:08:45;8.70;99.90
66184;DHT22;52989;48.796;9.806;2023-02-24T10:11:12;8.70;99.90
66184;DHT22;52989;48.796;9.806;2023-02-24T10:13:45;9.00;99.90
66184;DHT22;52989;48.796;9.806;2023-02-24T10:16:13;9.20;99.90
66184;DHT22;52989;48.796;9.806;2023-02-24T10:26:42;9.50;99.90
66184;DHT22;52989;48.796;9.806;2023-02-24T10:31:48;9.90;99.90
66184;DHT22;52989;48.796;9.806;2023-02-24T10:34:25;10.00;99.90
66184;DHT22;52989;48.796;9.806;2023-02-24T10:37:12;9.80;99.90
66184;DHT22;52989;48.796;9.806;2023-02-24T10:39:38;9.70;99.90
66184;DHT22;52989;48.796;9.806;2023-02-24T10:42:07;9.60;99.90
66184;DHT22;52989;48.796;9.806;2023-02-24T10:44:42;9.70;99.90
66184;DHT22;52989;48.796;9.806;2023-02-24T10:47:34;9.60;99.90
66184;DHT22;52989;48.796;9.806;2023-02-24T10:50:00;9.60;99.90
66184;DHT22;52989;48.796;9.806;2023-02-24T10:52:36;9.60;99.90
66184;DHT22;52989;48.796;9.806;2023-02-24T10:55:25;9.80;99.90
66184;DHT22;52989;48.796;9.806;2023-02-24T10:57:59;9.70;99.90
66184;DHT22;52989;48.796;9.806;2023-02-24T11:00:40;9.70;99.90
66184;DHT22;52989;48.796;9.806;2023-02-24T11:03:25;9.60;99.90
66184;DHT22;52989;48.796;9.806;2023-02-24T11:06:01;9.60;99.90
66184;DHT22;52989;48.796;9.806;2023-02-24T11:08:33;9.60;99.90
66184;DHT22;52989;48.796;9.806;2023-02-24T11:11:22;9.50;99.90
66184;DHT22;52989;48.796;9.806;2023-02-24T11:13:54;9.40;99.90
66184;DHT22;52989;48.796;9.806;2023-02-24T11:16:42;9.40;99.90
66184;DHT22;52989;48.796;9.806;2023-02-24T11:19:28;9.40;99.90
66184;DHT22;52989;48.796;9.806;2023-02-24T11:21:55;9.60;99.90
66184;DHT22;52989;48.796;9.806;2023-02-24T11:24:23;9.80;99.90
66184;DHT22;52989;48.796;9.806;2023-02-24T11:26:51;9.80;99.90
66184;DHT22;52989;48.796;9.806;2023-02-24T11:32:13;10.00;99.90
66184;DHT22;52989;48.796;9.806;2023-02-24T11:34:44;9.80;99.90
66184;DHT22;52989;48.796;9.806;2023-02-24T11:42:48;9.60;99.90
66184;DHT22;52989;48.796;9.806;2023-02-24T11:45:19;9.60;99.90
66184;DHT22;52989;48.796;9.806;2023-02-24T11:47:49;9.40;99.90
66184;DHT22;52989;48.796;9.806;2023-02-24T11:52:42;9.60;99.90
66184;DHT22;52989;48.796;9.806;2023-02-24T11:55:23;9.60;99.90
66184;DHT22;52989;48.796;9.806;2023-02-24T11:57:51;9.50;99.90
66184;DHT22;52989;48.796;9.806;2023-02-24T12:00:25;9.50;99.90
66184;DHT22;52989;48.796;9.806;2023-02-24T12:02:54;9.70;99.90
66184;DHT22;52989;48.796;9.806;2023-02-24T12:05:24;9.80;99.90
66184;DHT22;52989;48.796;9.806;2023-02-24T12:08:00;9.60;99.90
66184;DHT22;52989;48.796;9.806;2023-02-24T12:10:28;9.60;99.90
66184;DHT22;52989;48.796;9.806;2023-02-24T12:15:36;9.60;99.90
66184;DHT22;52989;48.796;9.806;2023-02-24T12:18:05;9.40;99.90
66184;DHT22;52989;48.796;9.806;2023-02-24T12:23:11;9.40;99.90
66184;DHT22;52989;48.796;9.806;2023-02-24T12:39:14;9.50;99.90
66184;DHT22;52989;48.796;9.806;2023-02-24T12:42:04;9.70;99.90
66184;DHT22;52989;48.796;9.806;2023-02-24T12:44:37;9.50;99.90
66184;DHT22;52989;48.796;9.806;2023-02-24T12:47:11;9.90;99.90
66184;DHT22;52989;48.796;9.806;2023-02-24T12:49:46;10.50;99.90
66184;DHT22;52989;48.796;9.806;2023-02-24T12:52:23;10.50;99.90
66184;DHT22;52989;48.796;9.806;2023-02-24T12:55:00;10.40;99.90
66184;DHT22;52989;48.796;9.806;2023-02-24T13:00:15;10.30;99.90
66184;DHT22;52989;48.796;9.806;2023-02-24T13:03:45;10.10;99.90
66184;DHT22;52989;48.796;9.806;2023-02-24T13:05:40;10.10;99.90
66184;DHT22;52989;48.796;9.806;2023-02-24T13:11:02;10.60;99.90
66184;DHT22;52989;48.796;9.806;2023-02-24T13:13:39;10.70;99.90
66184;DHT22;52989;48.796;9.806;2023-02-24T13:16:08;10.90;99.90
66184;DHT22;52989;48.796;9.806;2023-02-24T13:18:35;10.90;99.90
66184;DHT22;52989;48.796;9.806;2023-02-24T13:23:39;10.80;99.90
66184;DHT22;52989;48.796;9.806;2023-02-24T13:26:05;10.50;99.90
66184;DHT22;52989;48.796;9.806;2023-02-24T13:28:32;10.60;99.90
66184;DHT22;52989;48.796;9.806;2023-02-24T13:31:01;10.50;99.90
66184;DHT22;52989;48.796;9.806;2023-02-24T13:33:32;10.60;99.90
66184;DHT22;52989;48.796;9.806;2023-02-24T13:36:17;10.90;99.90
66184;DHT22;52989;48.796;9.806;2023-02-24T13:38:47;10.80;99.70
66184;DHT22;52989;48.796;9.806;2023-02-24T13:43:54;10.50;99.90
66184;DHT22;52989;48.796;9.806;2023-02-24T13:46:20;10.30;99.20
66184;DHT22;52989;48.796;9.806;2023-02-24T13:48:58;10.30;99.40
66184;DHT22;52989;48.796;9.806;2023-02-24T14:00:02;10.10;98.90
66184;DHT22;52989;48.796;9.806;2023-02-24T14:01:57;10.20;98.80
66184;DHT22;52989;48.796;9.806;2023-02-24T14:04:24;10.40;99.30
66184;DHT22;52989;48.796;9.806;2023-02-24T14:06:52;10.10;99.10
66184;DHT22;52989;48.796;9.806;2023-02-24T14:09:21;9.90;99.80
66184;DHT22;52989;48.796;9.806;2023-02-24T14:11:49;10.10;99.90
66184;DHT22;52989;48.796;9.806;2023-02-24T14:14:16;10.20;99.60
66184;DHT22;52989;48.796;9.806;2023-02-24T14:16:42;10.20;99.50
66184;DHT22;52989;48.796;9.806;2023-02-24T14:19:13;10.20;99.20
66184;DHT22;52989;48.796;9.806;2023-02-24T14:21:50;10.10;99.70
66184;DHT22;52989;48.796;9.806;2023-02-24T14:24:17;10.10;99.60
66184;DHT22;52989;48.796;9.806;2023-02-24T14:26:45;10.10;99.10
66184;DHT22;52989;48.796;9.806;2023-02-24T14:29:12;9.80;99.60
66184;DHT22;52989;48.796;9.806;2023-02-24T14:31:38;9.80;99.90
66184;DHT22;52989;48.796;9.806;2023-02-24T14:34:05;9.90;99.90
66184;DHT22;52989;48.796;9.806;2023-02-24T14:36:37;9.90;99.90
66184;DHT22;52989;48.796;9.806;2023-02-24T14:41:33;10.10;99.80
66184;DHT22;52989;48.796;9.806;2023-02-24T14:44:04;10.10;99.60
66184;DHT22;52989;48.796;9.806;2023-02-24T14:46:29;10.20;99.60
66184;DHT22;52989;48.796;9.806;2023-02-24T14:48:55;10.10;99.70
66184;DHT22;52989;48.796;9.806;2023-02-24T14:51:26;10.20;99.80
66184;DHT22;52989;48.796;9.806;2023-02-24T14:53:56;10.10;99.70
66184;DHT22;52989;48.796;9.806;2023-02-24T14:56:26;10.20;99.90
66184;DHT22;52989;48.796;9.806;2023-02-24T14:58:56;10.10;99.90
66184;DHT22;52989;48.796;9.806;2023-02-24T15:03:55;10.10;99.90
66184;DHT22;52989;48.796;9.806;2023-02-24T15:06:22;9.80;99.90
66184;DHT22;52989;48.796;9.806;2023-02-24T15:08:49;9.60;99.90
66184;DHT22;52989;48.796;9.806;2023-02-24T15:11:20;9.70;99.90
66184;DHT22;52989;48.796;9.806;2023-02-24T15:13:52;9.70;99.90
66184;DHT22;52989;48.796;9.806;2023-02-24T15:18:51;9.90;99.90
66184;DHT22;52989;48.796;9.806;2023-02-24T15:21:18;9.90;99.90
66184;DHT22;52989;48.796;9.806;2023-02-24T15:23:45;9.80;99.90
66184;DHT22;52989;48.796;9.806;2023-02-24T15:26:30;9.80;99.90
66184;DHT22;52989;48.796;9.806;2023-02-24T15:28:57;9.80;99.90
66184;DHT22;52989;48.796;9.806;2023-02-24T15:31:23;9.80;99.90
66184;DHT22;52989;48.796;9.806;2023-02-24T15:33:53;9.60;99.90
66184;DHT22;52989;48.796;9.806;2023-02-24T15:36:20;9.40;99.90
66184;DHT22;52989;48.796;9.806;2023-02-24T15:38:49;9.40;99.90
66184;DHT22;52989;48.796;9.806;2023-02-24T15:41:15;9.30;99.90
66184;DHT22;52989;48.796;9.806;2023-02-24T15:43:45;9.30;99.90
66184;DHT22;52989;48.796;9.806;2023-02-24T15:48:44;9.10;99.90
66184;DHT22;52989;48.796;9.806;2023-02-24T15:51:17;9.10;99.90
66184;DHT22;52989;48.796;9.806;2023-02-24T15:53:44;9.00;99.90
66184;DHT22;52989;48.796;9.806;2023-02-24T15:56:12;8.80;99.90
66184;DHT22;52989;48.796;9.806;2023-02-24T15:58:39;8.90;99.90
66184;DHT22;52989;48.796;9.806;2023-02-24T16:01:06;8.90;99.90
66184;DHT22;52989;48.796;9.806;2023-02-24T16:03:32;9.00;99.90
66184;DHT22;52989;48.796;9.806;2023-02-24T16:05:58;8.90;99.90
66184;DHT22;52989;48.796;9.806;2023-02-24T16:08:24;8.90;99.90
66184;DHT22;52989;48.796;9.806;2023-02-24T16:10:49;8.90;99.90
66184;DHT22;52989;48.796;9.806;2023-02-24T16:13:22;8.90;99.90
66184;DHT22;52989;48.796;9.806;2023-02-24T16:15:48;8.80;99.90
66184;DHT22;52989;48.796;9.806;2023-02-24T16:18:16;8.80;99.90
66184;DHT22;52989;48.796;9.806;2023-02-24T16:20:45;8.60;99.90
66184;DHT22;52989;48.796;9.806;2023-02-24T16:23:19;8.70;99.90
66184;DHT22;52989;48.796;9.806;2023-02-24T16:25:44;8.40;99.90
66184;DHT22;52989;48.796;9.806;2023-02-24T16:28:14;8.40;99.90
66184;DHT22;52989;48.796;9.806;2023-02-24T16:30:39;8.30;99.90
66184;DHT22;52989;48.796;9.806;2023-02-24T16:33:08;8.40;99.90
66184;DHT22;52989;48.796;9.806;2023-02-24T16:35:35;8.50;99.90
66184;DHT22;52989;48.796;9.806;2023-02-24T16:38:03;8.40;99.90
66184;DHT22;52989;48.796;9.806;2023-02-24T16:40:30;8.40;99.90
66184;DHT22;52989;48.796;9.806;2023-02-24T16:43:00;8.30;99.90
66184;DHT22;52989;48.796;9.806;2023-02-24T16:45:26;8.20;99.90
66184;DHT22;52989;48.796;9.806;2023-02-24T16:47:53;8.10;99.90
66184;DHT22;52989;48.796;9.806;2023-02-24T16:50:31;8.00;99.90
66184;DHT22;52989;48.796;9.806;2023-02-24T16:52:57;7.90;99.90
66184;DHT22;52989;48.796;9.806;2023-02-24T16:55:23;7.90;99.90
66184;DHT22;52989;48.796;9.806;2023-02-24T16:57:48;7.90;99.90
66184;DHT22;52989;48.796;9.806;2023-02-24T17:00:14;7.80;99.90
66184;DHT22;52989;48.796;9.806;2023-02-24T17:02:41;7.80;99.90
66184;DHT22;52989;48.796;9.806;2023-02-24T17:05:10;7.80;99.90
66184;DHT22;52989;48.796;9.806;2023-02-24T17:07:37;7.80;99.90
66184;DHT22;52989;48.796;9.806;2023-02-24T17:10:04;7.80;99.90
66184;DHT22;52989;48.796;9.806;2023-02-24T17:12:29;7.80;99.90
66184;DHT22;52989;48.796;9.806;2023-02-24T17:14:55;7.90;99.90
66184;DHT22;52989;48.796;9.806;2023-02-24T17:17:23;7.80;99.90
66184;DHT22;52989;48.796;9.806;2023-02-24T17:19:48;7.80;99.90
66184;DHT22;52989;48.796;9.806;2023-02-24T17:22:14;7.90;99.90
66184;DHT22;52989;48.796;9.806;2023-02-24T17:24:39;7.90;99.90
66184;DHT22;52989;48.796;9.806;2023-02-24T17:27:04;7.80;99.90
66184;DHT22;52989;48.796;9.806;2023-02-24T17:29:32;7.90;99.90
66184;DHT22;52989;48.796;9.806;2023-02-24T17:31:57;7.80;99.90
66184;DHT22;52989;48.796;9.806;2023-02-24T17:34:23;7.80;99.90
66184;DHT22;52989;48.796;9.806;2023-02-24T17:36:48;7.70;99.90
66184;DHT22;52989;48.796;9.806;2023-02-24T17:39:14;8.00;99.90
66184;DHT22;52989;48.796;9.806;2023-02-24T17:41:39;8.00;99.90
66184;DHT22;52989;48.796;9.806;2023-02-24T17:44:05;8.10;99.90
66184;DHT22;52989;48.796;9.806;2023-02-24T17:46:30;7.80;99.90
66184;DHT22;52989;48.796;9.806;2023-02-24T17:48:56;8.10;99.90
66184;DHT22;52989;48.796;9.806;2023-02-24T17:51:21;8.10;99.90
66184;DHT22;52989;48.796;9.806;2023-02-24T17:53:47;8.10;99.90
66184;DHT22;52989;48.796;9.806;2023-02-24T17:56:12;7.80;99.90
66184;DHT22;52989;48.796;9.806;2023-02-24T17:58:38;7.80;99.90
66184;DHT22;52989;48.796;9.806;2023-02-24T18:01:04;7.80;99.90